Latest Weather Observations for Cape Jaffa

IDS60801

Issued at 4:02 pm CST Thursday 28 July 2016 (issued every 30 minutes, with the page automatically refreshed every 10 minutes)

About weather observations | Map of weather stations | Latest weather observations for SA | Other Formats
Station Details ID: 026095 Name: THE LIMESTONE Lat: -36.97 Lon: 139.72 Height: 17.0 m
Data from the previous 72 hours. | See also: Recent months at Cape Jaffa
Date/Time
CST
Temp
°C
App
Temp
°C
Dew
Point
°C
Rel
Hum
%
Delta-T
°C
Wind Press
QNH
hPa
Press
MSL
hPa
Rain since
9am
mm
Dir  Spd
km/h
Gust
km/h
Spd
kts
Gust
kts
28/04:00pm 13.1 9.2 9.5 79 1.8 NW 20 32 11 17 1024.4 1024.4 0.0
28/03:30pm 13.8 9.9 9.3 74 2.3 NW 20 28 11 15 1024.4 1024.4 0.0
28/03:00pm 13.9 9.9 9.1 73 2.4 WNW 20 30 11 16 1024.4 1024.4 0.0
28/02:30pm 13.9 9.6 9.3 74 2.3 WNW 22 30 12 16 1024.4 1024.4 0.0
28/02:00pm 14.0 9.6 9.0 72 2.5 NW 22 30 12 16 1024.5 1024.5 0.0
28/01:30pm 14.3 9.0 8.3 67 3.0 NW 26 33 14 18 1024.6 1024.6 0.0
28/01:00pm 14.3 9.4 8.3 67 3.0 NW 24 33 13 18 1025.0 1025.0 0.0
28/12:30pm 15.0 10.1 8.3 64 3.4 WNW 24 33 13 18 1025.2 1025.2 0.0
28/12:00pm 15.0 9.7 8.3 64 3.4 WNW 26 35 14 19 1025.5 1025.5 0.0
28/11:30am 15.0 10.6 9.1 68 3.0 WNW 22 33 12 18 1025.7 1025.7 0.0
28/11:00am 14.6 10.1 8.5 67 3.1 WNW 22 30 12 16 1026.0 1026.0 0.0
28/10:30am 14.0 8.4 8.8 71 2.6 WNW 28 35 15 19 1026.1 1026.1 0.0
28/10:00am 13.9 10.0 8.5 70 2.7 WNW 19 26 10 14 1026.0 1026.0 0.0
28/09:30am 13.3 8.5 7.3 67 2.9 WNW 22 33 12 18 1026.0 1026.0 0.0
28/09:00am 13.2 8.4 7.2 67 2.9 W 22 30 12 16 1025.8 1025.8 0.6
28/08:30am 13.3 8.2 7.5 68 2.8 WNW 24 33 13 18 1025.7 1025.7 0.6
28/08:00am 12.6 7.9 7.7 72 2.4 W 22 30 12 16 1025.5 1025.5 0.6
28/07:30am 12.3 8.0 6.8 69 2.6 W 19 24 10 13 1025.1 1025.1 0.6
28/07:00am 12.1 7.1 6.4 68 2.7 W 22 32 12 17 1025.0 1025.0 0.6
28/06:30am 12.4 7.2 7.3 71 2.5 W 24 32 13 17 1024.8 1024.8 0.6
28/06:00am 12.3 7.4 7.0 70 2.5 W 22 28 12 15 1024.7 1024.7 0.6
28/05:30am 11.8 7.8 8.1 78 1.8 W 19 24 10 13 1024.6 1024.6 0.6
28/05:00am 11.4 5.3 8.1 80 1.6 W 30 41 16 22 1024.6 1024.6 0.6
28/04:30am 12.1 6.4 6.8 70 2.5 W 26 35 14 19 1024.4 1024.4 0.6
28/04:00am 11.9 6.8 7.6 75 2.1 W 24 39 13 21 1024.2 1024.2 0.6
28/03:30am 11.9 7.0 8.4 79 1.7 WSW 24 32 13 17 1024.1 1024.1 0.6
28/03:00am 12.1 6.3 7.8 75 2.1 W 28 39 15 21 1024.2 1024.2 0.6
28/02:30am 11.7 7.2 8.7 82 1.5 W 22 35 12 19 1024.4 1024.4 0.6
28/02:00am 12.0 6.6 8.1 77 1.9 W 26 33 14 18 1024.4 1024.4 0.6
28/01:30am 11.4 8.1 9.5 88 1.0 WNW 17 24 9 13 1024.4 1024.4 0.6
28/01:00am 10.8 6.4 9.1 89 0.8 W 22 30 12 16 1024.7 1024.7 0.6
28/12:44am 10.7 5.2 9.1 90 0.8 W 28 44 15 24 1024.3 1024.3 0.6
28/12:30am 10.7 6.9 9.1 90 0.8 W 19 24 10 13 1024.3 1024.3 0.6
28/12:00am 10.6 6.5 8.5 87 1.0 W 20 30 11 16 1024.3 1024.3 0.4
 
Date/Time
CST
Temp
°C
App
Temp
°C
Dew
Point
°C
Rel
Hum
%
Delta-T
°C
Wind Press
QNH
hPa
Press
MSL
hPa
Rain since
9am
mm
Dir  Spd
km/h
Gust
km/h
Spd
kts
Gust
kts
27/11:30pm 10.9 7.2 9.3 90 0.8 WNW 19 30 10 16 1024.5 1024.5 0.2
27/11:00pm 10.9 7.0 8.7 86 1.1 WNW 19 24 10 13 1024.5 1024.5 0.0
27/10:30pm 10.9 7.3 8.3 84 1.3 WNW 17 24 9 13 1024.6 1024.6 0.0
27/10:00pm 11.0 6.8 8.2 83 1.4 W 20 37 11 20 1024.7 1024.7 0.0
27/09:30pm 11.1 7.1 8.1 82 1.5 W 19 28 10 15 1024.6 1024.6 0.0
27/09:00pm 11.3 7.1 7.6 78 1.8 WNW 19 24 10 13 1024.7 1024.7 0.0
27/08:30pm 11.9 7.0 7.0 72 2.3 W 22 30 12 16 1024.6 1024.6 0.0
27/08:00pm 11.7 6.5 7.2 74 2.2 W 24 32 13 17 1024.5 1024.5 0.0
27/07:30pm 11.8 6.9 6.7 71 2.4 W 22 33 12 18 1024.2 1024.2 0.0
27/07:00pm 11.7 6.6 6.2 69 2.6 W 22 33 12 18 1024.0 1024.0 0.0
27/06:30pm 11.5 7.1 7.2 75 2.1 W 20 26 11 14 1023.6 1023.6 0.0
27/06:00pm 11.1 7.2 7.2 77 1.9 W 17 20 9 11 1023.3 1023.3 0.0
27/05:30pm 11.5 7.0 6.2 70 2.5 W 19 24 10 13 1023.0 1023.0 0.0
27/05:00pm 11.6 6.0 5.5 66 2.8 WSW 24 32 13 17 1022.7 1022.7 0.0
27/04:30pm 11.7 6.3 6.4 70 2.5 WSW 24 32 13 17 1022.7 1022.7 0.0
27/04:00pm 11.9 6.5 6.2 68 2.7 W 24 32 13 17 1022.7 1022.7 0.0
27/03:30pm 12.5 6.2 5.9 64 3.1 WSW 28 37 15 20 1022.4 1022.4 0.0
27/03:00pm 12.3 5.0 5.5 63 3.1 WSW 33 44 18 24 1022.0 1022.0 0.0
27/02:30pm 11.6 5.1 6.7 72 2.3 W 30 41 16 22 1021.7 1021.7 0.0
27/02:00pm 12.9 7.1 6.3 64 3.1 WSW 26 32 14 17 1021.6 1021.6 0.0
27/01:30pm 13.1 6.1 6.2 63 3.3 WSW 32 39 17 21 1021.4 1021.4 0.0
27/01:00pm 12.4 5.4 6.0 65 3.0 WSW 32 39 17 21 1021.2 1021.2 0.0
27/12:30pm 12.3 5.1 5.0 61 3.3 WSW 32 39 17 21 1021.1 1021.1 0.0
27/12:00pm 12.4 5.7 5.8 64 3.1 SW 30 37 16 20 1021.1 1021.1 0.0
27/11:30am 12.5 5.8 5.7 63 3.2 SW 30 41 16 22 1021.0 1021.0 0.0
27/11:00am 12.1 5.6 4.6 60 3.4 SW 28 39 15 21 1021.0 1021.0 0.0
27/10:30am 12.1 5.6 4.6 60 3.4 SW 28 37 15 20 1020.7 1020.7 0.0
27/10:00am 11.7 5.1 4.0 59 3.4 SW 28 39 15 21 1020.2 1020.2 0.0
27/09:30am 11.2 5.0 4.4 63 3.0 SW 26 35 14 19 1019.7 1019.7 0.0
27/09:00am 11.1 4.8 3.9 61 3.2 SW 26 39 14 21 1019.2 1019.2 7.4
27/08:30am 10.6 2.8 2.9 59 3.3 SW 33 41 18 22 1018.9 1018.9 7.4
27/08:00am 10.3 4.0 5.7 73 2.1 SW 28 35 15 19 1018.5 1018.5 7.4
27/07:30am 9.7 4.2 6.1 78 1.7 SSW 24 32 13 17 1017.9 1017.9 7.4
27/07:00am 10.3 2.3 3.8 64 2.9 SW 35 46 19 25 1017.2 1017.2 7.4
27/06:30am 9.9 3.1 5.3 73 2.1 SW 30 44 16 24 1016.7 1016.7 7.4
27/06:00am 10.0 2.5 4.6 69 2.4 SW 33 43 18 23 1015.7 1015.7 7.4
27/05:30am 9.9 3.5 5.3 73 2.1 SW 28 37 15 20 1015.3 1015.3 7.4
27/05:00am 10.0 1.5 5.2 72 2.2 SW 39 56 21 30 1014.6 1014.6 7.4
27/04:42am 10.3 2.0 4.2 66 2.7 SW 37 57 20 31 1013.9 1013.9 7.4
27/04:30am 10.2 1.2 4.4 67 2.6 SW 41 54 22 29 1013.4 1013.4 7.4
27/04:00am 10.3 0.2 4.0 65 2.8 SW 46 61 25 33 1012.6 1012.6 7.4
27/03:54am 10.4 1.5 5.0 69 2.4 SSW 41 61 22 33 1012.3 1012.3 7.4
27/03:30am 10.2 1.1 5.8 74 2.0 SW 43 54 23 29 1012.1 1012.1 7.4
27/03:00am 10.9 1.8 6.8 76 1.9 SW 44 63 24 34 1011.3 1011.3 7.4
27/02:56am 11.2 2.1 6.7 74 2.1 SW 44 63 24 34 1011.0 1011.0 7.4
27/02:30am 11.2 2.7 7.1 76 2.0 SW 41 54 22 29 1010.6 1010.6 7.4
27/02:09am 11.5 3.3 8.2 80 1.6 SW 41 59 22 32 1010.1 1010.1 7.4
27/02:00am 11.3 4.1 7.8 79 1.7 SW 35 52 19 28 1009.9 1009.9 7.4
27/01:30am 11.8 3.9 7.7 76 2.0 SW 39 54 21 29 1009.2 1009.2 7.4
27/01:00am 11.3 3.4 7.8 79 1.7 SW 39 54 21 29 1008.7 1008.7 7.4
27/12:30am 11.4 4.3 7.9 79 1.7 WSW 35 46 19 25 1008.2 1008.2 7.4
27/12:00am 10.7 3.7 8.5 86 1.1 WSW 35 50 19 27 1007.8 1007.8 7.4
 
Date/Time
CST
Temp
°C
App
Temp
°C
Dew
Point
°C
Rel
Hum
%
Delta-T
°C
Wind Press
QNH
hPa
Press
MSL
hPa
Rain since
9am
mm
Dir  Spd
km/h
Gust
km/h
Spd
kts
Gust
kts
26/11:30pm 11.7 4.6 8.2 79 1.7 WSW 35 43 19 23 1007.2 1007.2 7.2
26/11:00pm 11.0 2.8 8.1 82 1.4 WSW 41 56 22 30 1006.9 1006.9 7.2
26/10:52pm 11.6 4.5 8.1 79 1.7 WSW 35 56 19 30 1006.6 1006.6 7.0
26/10:30pm 11.6 4.2 8.3 80 1.6 WSW 37 48 20 26 1006.3 1006.3 6.8
26/10:00pm 11.5 3.5 7.4 76 2.0 WSW 39 52 21 28 1005.7 1005.7 6.8
26/09:30pm 11.9 4.2 7.2 73 2.3 WSW 37 61 20 33 1004.8 1004.8 6.8
26/09:27pm 11.4 4.9 8.1 80 1.6 WSW 32 61 17 33 1004.8 1004.8 6.8
26/09:00pm 10.8 2.4 7.5 80 1.6 WSW 41 52 22 28 1004.4 1004.4 6.8
26/08:30pm 9.9 0.6 7.5 85 1.2 WSW 46 72 25 39 1003.7 1003.8 6.8
26/08:06pm 11.0 2.2 7.9 81 1.5 WSW 44 63 24 34 1003.0 1003.1 6.0
26/08:00pm 10.9 2.6 7.8 81 1.5 WSW 41 54 22 29 1002.9 1003.0 6.0
26/07:49pm 10.8 4.7 8.2 84 1.3 W 30 52 16 28 1002.8 1002.9 5.8
26/07:30pm 11.0 5.3 8.2 83 1.4 WNW 28 35 15 19 1002.7 1002.8 5.6
26/07:00pm 11.2 5.6 7.3 77 1.9 WNW 26 35 14 19 1002.5 1002.6 5.6
26/06:30pm 10.0 4.3 6.7 80 1.6 WNW 26 37 14 20 1002.5 1002.6 5.6
26/06:10pm 10.8 3.0 6.6 75 2.0 NW 37 54 20 29 1002.4 1002.5 4.8
26/06:00pm 10.5 1.4 6.8 78 1.8 NNW 44 57 24 31 1002.3 1002.4 4.8
26/05:30pm 10.7 1.6 8.3 85 1.2 NNW 46 61 25 33 1002.3 1002.4 4.8
26/05:00pm 11.1 1.5 8.1 82 1.5 NNW 48 65 26 35 1002.5 1002.6 4.8
26/04:30pm 10.5 0.9 8.1 85 1.2 N 48 59 26 32 1002.6 1002.7 4.8
26/04:00pm 10.9 1.7 7.8 81 1.5 NNW 46 61 25 33 1003.6 1003.7 4.6
26/03:30pm 10.7 1.0 7.6 81 1.5 NNW 48 63 26 34 1004.4 1004.4 4.6
26/03:20pm 10.6 1.4 8.0 84 1.3 NNW 46 65 25 35 1004.6 1004.6 4.6
26/03:00pm 10.4 0.4 8.0 85 1.2 NNW 50 67 27 36 1005.0 1005.0 4.6
26/02:30pm 10.6 1.8 8.0 84 1.3 NNW 44 59 24 32 1005.5 1005.5 4.2
26/02:12pm 10.7 0.6 7.6 81 1.5 NNW 50 70 27 38 1005.8 1005.8 4.2
26/02:00pm 10.8 2.3 8.4 85 1.2 NNW 43 57 23 31 1005.9 1005.9 4.2
26/01:48pm 10.0 1.2 8.1 88 0.9 N 44 70 24 38 1006.0 1006.0 4.2
26/01:30pm 11.1 3.1 7.6 79 1.7 NNW 39 50 21 27 1006.6 1006.6 3.2
26/01:00pm 9.2 2.1 6.5 83 1.3 NNW 33 43 18 23 1007.7 1007.7 3.2
26/12:30pm 10.9 2.7 6.5 74 2.1 NNW 39 54 21 29 1008.7 1008.7 1.2
26/12:11pm 11.2 4.8 7.1 76 2.0 NNW 30 50 16 27 1009.0 1009.0 1.0
26/12:00pm 11.0 6.1 7.1 77 1.9 NNW 22 32 12 17 1009.2 1009.2 1.0
26/11:30am 9.9 3.0 6.4 79 1.6 NW 32 46 17 25 1010.2 1010.2 0.8
26/11:25am 10.6 4.5 6.4 75 2.0 NNW 28 46 15 25 1010.2 1010.2 0.8
26/11:00am 9.7 5.4 6.8 82 1.4 NW 19 24 10 13 1010.6 1010.6 0.8
26/10:30am 10.0 5.4 6.3 78 1.7 NW 20 26 11 14 1011.4 1011.4 0.6
26/10:00am 9.9 5.5 6.4 79 1.6 NW 19 32 10 17 1011.5 1011.5 0.6
26/09:43am 8.7 0.8 6.2 84 1.1 WNW 37 57 20 31 1011.9 1011.9 0.4
26/09:37am 9.4 2.6 5.0 74 2.0 WNW 30 57 16 31 1011.8 1011.8 0.0
26/09:30am 10.6 5.5 3.9 63 3.0 NW 20 32 11 17 1011.6 1011.6 0.0
26/09:00am 10.1 5.7 4.7 69 2.4 WNW 17 20 9 11 1011.9 1011.9 6.8
26/08:30am 9.7 3.5 4.3 69 2.4 WNW 26 33 14 18 1012.0 1012.0 6.8
26/08:17am 10.1 5.2 5.1 71 2.3 NW 20 39 11 21 1012.0 1012.0 6.8
26/08:00am 9.2 6.4 5.2 76 1.8 NW 9 19 5 10 1012.0 1012.0 6.8
26/07:30am 8.4 5.0 4.0 74 1.9 WNW 11 17 6 9 1012.1 1012.1 6.8
26/07:00am 8.4 3.4 4.4 76 1.8 W 20 28 11 15 1012.2 1012.2 6.8
26/06:30am 8.8 2.8 3.6 70 2.2 WNW 24 33 13 18 1012.0 1012.0 6.6
26/06:00am 8.9 4.8 4.3 73 2.0 W 15 22 8 12 1011.9 1011.9 6.4
26/05:30am 8.5 3.6 4.1 74 1.9 W 19 26 10 14 1012.0 1012.0 6.4
26/05:01am 9.6 3.0 4.0 68 2.5 W 28 52 15 28 1011.8 1011.8 6.2
26/05:00am 9.8 3.5 3.5 65 2.7 W 26 35 14 19 1011.9 1011.9 6.2
26/04:30am 9.5 2.1 1.9 59 3.2 W 30 39 16 21 1011.7 1011.7 6.2
26/04:00am 9.6 2.0 2.7 62 2.9 WSW 32 41 17 22 1011.9 1011.9 6.2
26/03:30am 9.4 1.5 2.5 62 2.9 WSW 33 43 18 23 1012.0 1012.0 6.2
26/03:00am 9.2 1.5 3.6 68 2.4 WSW 33 46 18 25 1012.1 1012.1 6.2
26/02:30am 9.6 1.8 2.7 62 2.9 WSW 33 46 18 25 1012.3 1012.3 6.2
26/02:00am 9.5 2.0 3.7 67 2.5 WSW 32 44 17 24 1012.5 1012.5 6.2
26/01:30am 9.3 -0.1 4.3 71 2.2 WSW 43 59 23 32 1012.3 1012.3 6.2
26/01:18am 10.1 1.5 4.5 68 2.5 W 39 59 21 32 1012.2 1012.2 6.2
26/01:00am 10.0 1.0 2.6 60 3.2 W 39 48 21 26 1012.2 1012.2 6.2
26/12:30am 9.8 0.9 3.3 64 2.8 WSW 39 50 21 27 1012.1 1012.1 6.2
26/12:00am 9.5 -0.2 2.8 63 2.9 WSW 43 54 23 29 1012.2 1012.2 6.2
 
Date/Time
CST
Temp
°C
App
Temp
°C
Dew
Point
°C
Rel
Hum
%
Delta-T
°C
Wind Press
QNH
hPa
Press
MSL
hPa
Rain since
9am
mm
Dir  Spd
km/h
Gust
km/h
Spd
kts
Gust
kts
25/11:46pm 8.8 -0.8 4.4 74 1.9 WSW 44 63 24 34 1012.3 1012.3 6.2
25/11:30pm 9.8 0.2 4.4 69 2.4 W 44 61 24 33 1012.0 1012.0 6.2
25/11:00pm 9.7 -0.2 3.0 63 2.9 W 44 61 24 33 1011.8 1011.8 6.2
25/10:49pm 9.8 0.3 4.0 67 2.6 W 43 61 23 33 1011.6 1011.6 6.2
25/10:30pm 9.2 -0.3 4.8 74 2.0 WSW 44 61 24 33 1011.8 1011.8 6.2
25/10:06pm 10.1 0.4 3.8 65 2.8 W 44 63 24 34 1011.4 1011.4 6.2
25/10:00pm 10.0 0.3 3.1 62 3.0 W 43 59 23 32 1011.4 1011.4 6.2
25/09:34pm 9.0 1.6 4.0 71 2.2 WSW 32 50 17 27 1011.5 1011.5 6.2
25/09:30pm 8.5 0.5 3.8 72 2.0 WSW 35 48 19 26 1011.5 1011.5 6.2
25/09:17pm 10.1 1.0 4.0 66 2.7 W 41 59 22 32 1011.4 1011.4 6.2
25/09:00pm 9.9 0.6 2.7 61 3.1 W 41 52 22 28 1011.1 1011.1 6.2
25/08:30pm 8.8 0.8 3.6 70 2.2 W 35 50 19 27 1011.1 1011.1 6.2
25/08:12pm 10.4 0.6 3.2 61 3.1 W 44 82 24 44 1010.4 1010.4 6.0
25/08:00pm 10.5 1.1 2.4 57 3.5 W 41 57 22 31 1010.4 1010.4 6.0
25/07:30pm 9.6 1.8 3.1 64 2.8 WSW 33 43 18 23 1010.3 1010.3 6.0
25/07:03pm 9.9 -0.2 3.9 66 2.6 W 46 72 25 39 1009.8 1009.8 6.0
25/07:00pm 9.9 -0.5 2.0 58 3.3 W 46 59 25 32 1009.9 1009.9 6.0
25/06:37pm 10.1 0.3 3.6 64 2.8 WSW 44 63 24 34 1009.3 1009.3 6.0
25/06:30pm 10.0 1.0 4.6 69 2.4 WSW 41 57 22 31 1009.2 1009.2 6.0
25/06:13pm 10.7 0.5 3.0 59 3.3 W 46 69 25 37 1008.7 1008.7 6.0
25/06:00pm 10.1 0.2 2.7 60 3.2 W 44 59 24 32 1008.5 1008.5 6.0
25/05:41pm 10.6 -0.2 1.9 55 3.7 W 48 69 26 37 1008.2 1008.2 6.0
25/05:30pm 10.6 0.8 3.4 61 3.2 W 44 63 24 34 1008.1 1008.1 6.0
25/05:13pm 10.1 -0.5 3.2 62 3.0 W 48 67 26 36 1008.0 1008.0 6.0
25/05:00pm 11.0 -0.3 3.3 59 3.4 W 52 69 28 37 1007.5 1007.5 6.0
25/04:31pm 10.8 -0.1 3.8 62 3.1 W 50 70 27 38 1007.2 1007.2 6.0
25/04:30pm 10.9 -0.4 3.5 60 3.3 W 52 70 28 38 1007.1 1007.1 6.0

Other Formats:

Comma delimited format used in spreadsheet applications
http://www.bom.gov.au/fwo/IDS60801/IDS60801.94813.axf

JavaScript Object Notation format (JSON) in row-major order
http://www.bom.gov.au/fwo/IDS60801/IDS60801.94813.json